createdAt,value
2023-05-21T00:00:03.645Z,80.50
2023-05-21T00:01:04.244Z,80.50
2023-05-21T00:02:03.891Z,80.20
2023-05-21T00:03:03.670Z,80.10
2023-05-21T00:04:06.795Z,80.10
2023-05-21T00:05:04.229Z,80.40
2023-05-21T00:06:06.535Z,80.90
2023-05-21T00:07:06.592Z,82.80
2023-05-21T00:08:06.597Z,83.00
2023-05-21T00:09:04.052Z,82.80
2023-05-21T00:10:03.904Z,83.60
2023-05-21T00:11:06.286Z,83.00
2023-05-21T00:12:03.822Z,83.60
2023-05-21T00:13:12.946Z,81.30
2023-05-21T00:14:06.921Z,80.50
2023-05-21T00:15:04.392Z,80.60
2023-05-21T00:16:06.566Z,81.70
2023-05-21T00:18:06.848Z,81.00
2023-05-21T00:20:04.362Z,81.70
2023-05-21T00:21:03.950Z,82.50
2023-05-21T00:22:08.703Z,77.80
2023-05-21T00:23:04.216Z,78.30
2023-05-21T00:24:06.399Z,80.00
2023-05-21T00:26:03.658Z,83.30
2023-05-21T00:27:04.399Z,84.20
2023-05-21T00:28:06.596Z,84.20
2023-05-21T00:29:06.589Z,81.30
2023-05-21T00:31:06.666Z,81.70
2023-05-21T00:32:13.456Z,77.30
2023-05-21T00:34:04.049Z,78.80
2023-05-21T00:35:03.749Z,77.90
2023-05-21T00:36:04.451Z,77.60
2023-05-21T00:37:06.191Z,79.30
2023-05-21T00:39:06.850Z,78.60
2023-05-21T00:41:04.409Z,78.90
2023-05-21T00:42:03.996Z,78.80
2023-05-21T00:43:03.599Z,78.10
2023-05-21T00:44:06.670Z,79.60
2023-05-21T00:45:04.274Z,79.40
2023-05-21T00:46:04.120Z,80.30
2023-05-21T00:48:06.889Z,80.00
2023-05-21T00:49:06.980Z,79.50
2023-05-21T00:50:06.046Z,80.10
2023-05-21T00:51:08.608Z,80.50
2023-05-21T00:52:04.024Z,80.10
2023-05-21T00:54:04.406Z,79.60
2023-05-21T00:55:06.599Z,80.40
2023-05-21T00:57:06.250Z,81.60
2023-05-21T00:59:04.283Z,81.80
2023-05-21T01:00:06.700Z,82.80
2023-05-21T01:02:03.957Z,85.40
2023-05-21T01:03:08.739Z,80.60
2023-05-21T01:04:04.235Z,80.60
2023-05-21T01:05:03.799Z,80.10
2023-05-21T01:06:04.432Z,80.60
2023-05-21T01:07:04.091Z,80.20
2023-05-21T01:08:06.276Z,82.30
2023-05-21T01:09:05.597Z,82.20
2023-05-21T01:10:04.222Z,82.50
2023-05-21T01:11:06.446Z,86.80
2023-05-21T01:12:09.024Z,85.70
2023-05-21T01:14:04.104Z,84.70
2023-05-21T01:15:06.187Z,84.80
2023-05-21T01:16:06.177Z,85.30
2023-05-21T01:18:04.425Z,85.30
2023-05-21T01:19:06.686Z,85.90
2023-05-21T01:21:06.302Z,85.70
2023-05-21T01:22:06.320Z,86.30
2023-05-21T01:24:06.925Z,86.20
2023-05-21T01:25:04.488Z,86.20
2023-05-21T01:26:04.133Z,85.90
2023-05-21T01:27:03.759Z,86.40
2023-05-21T01:28:04.289Z,64.10
2023-05-21T01:29:03.808Z,86.70
2023-05-21T01:30:04.412Z,86.40
2023-05-21T01:31:09.073Z,87.60
2023-05-21T01:33:03.896Z,86.40
2023-05-21T01:34:06.192Z,87.20
2023-05-21T01:35:03.849Z,87.70
2023-05-21T01:36:04.457Z,88.40
2023-05-21T01:37:04.196Z,88.40
2023-05-21T01:38:06.330Z,88.30
2023-05-21T01:41:03.487Z,87.80
2023-05-21T01:42:06.765Z,87.40
2023-05-21T01:43:06.720Z,87.60
2023-05-21T01:44:06.732Z,87.30
2023-05-21T01:45:06.755Z,87.90
2023-05-21T01:46:06.820Z,88.10
2023-05-21T01:47:06.879Z,86.90
2023-05-21T01:49:06.491Z,90.00
2023-05-21T01:50:04.005Z,89.70
2023-05-21T01:51:06.247Z,90.50
2023-05-21T01:52:03.804Z,90.60
2023-05-21T01:53:04.283Z,88.50
2023-05-21T01:54:06.470Z,88.00
2023-05-21T01:55:08.980Z,86.80
2023-05-21T02:00:04.327Z,87.80
2023-05-21T02:02:07.086Z,87.50
2023-05-21T02:03:06.345Z,87.20
2023-05-21T02:04:09.283Z,87.60
2023-05-21T02:06:03.736Z,89.60
2023-05-21T02:07:04.379Z,89.50
2023-05-21T02:08:03.957Z,88.20
2023-05-21T02:09:03.554Z,88.00
2023-05-21T02:10:06.724Z,87.50
2023-05-21T02:11:06.763Z,88.00
2023-05-21T02:12:04.260Z,90.00
2023-05-21T02:13:08.999Z,87.30
2023-05-21T02:14:08.547Z,87.30
2023-05-21T02:15:03.972Z,87.00
2023-05-21T02:16:03.999Z,87.20
2023-05-21T02:17:06.184Z,85.00
2023-05-21T02:18:03.954Z,85.70
2023-05-21T02:19:03.624Z,86.50
2023-05-21T02:20:03.912Z,86.30
2023-05-21T02:21:08.647Z,86.60
2023-05-21T02:22:04.245Z,87.20
2023-05-21T02:23:03.885Z,88.50
2023-05-21T02:24:07.007Z,88.50
2023-05-21T02:26:06.563Z,88.80
2023-05-21T02:27:04.121Z,88.50
2023-05-21T02:28:03.767Z,88.00
2023-05-21T02:29:06.958Z,87.50
2023-05-21T02:31:04.174Z,88.20
2023-05-21T02:32:03.750Z,87.50
2023-05-21T02:33:04.384Z,87.70
2023-05-21T02:34:04.058Z,88.00
2023-05-21T02:35:06.239Z,88.00
2023-05-21T02:37:07.083Z,87.50
2023-05-21T02:39:04.151Z,87.20
2023-05-21T02:40:06.302Z,87.10
2023-05-21T02:42:07.027Z,88.10
2023-05-21T02:44:04.115Z,88.20
2023-05-21T02:45:06.283Z,88.00
2023-05-21T02:46:04.033Z,88.20
2023-05-21T02:47:03.778Z,88.10
2023-05-21T02:48:07.045Z,89.20
2023-05-21T02:50:06.624Z,88.70
2023-05-21T02:51:04.242Z,89.20
2023-05-21T02:52:03.924Z,88.60
2023-05-21T02:53:06.109Z,87.90
2023-05-21T02:54:06.165Z,87.40
2023-05-21T02:55:06.270Z,87.10
2023-05-21T02:57:04.346Z,87.20
2023-05-21T02:58:06.511Z,87.70
2023-05-21T02:59:03.989Z,87.80
2023-05-21T03:00:03.577Z,86.70
2023-05-21T03:01:06.876Z,87.80
2023-05-21T03:02:04.425Z,87.50
2023-05-21T03:03:04.421Z,87.40
2023-05-21T03:05:06.347Z,87.50
2023-05-21T03:06:06.362Z,87.40
2023-05-21T03:07:06.409Z,87.70
2023-05-21T03:08:06.413Z,88.00
2023-05-21T03:09:06.457Z,88.30
2023-05-21T03:10:06.604Z,88.80
2023-05-21T03:12:03.868Z,88.40
2023-05-21T03:13:03.437Z,88.40
2023-05-21T03:14:06.703Z,88.30
2023-05-21T03:16:09.136Z,88.20
2023-05-21T03:18:04.368Z,87.40
2023-05-21T03:19:06.106Z,88.00
2023-05-21T03:20:08.771Z,88.00
2023-05-21T03:22:04.055Z,89.20
2023-05-21T03:23:06.196Z,90.00
2023-05-21T03:24:03.806Z,90.00
2023-05-21T03:25:03.592Z,88.70
2023-05-21T03:26:04.222Z,89.00
2023-05-21T03:27:08.993Z,88.30
2023-05-21T03:29:04.238Z,89.20
2023-05-21T03:30:07.024Z,89.00
2023-05-21T03:31:06.221Z,89.40
2023-05-21T03:32:04.215Z,88.70
2023-05-21T03:33:03.959Z,89.20
2023-05-21T03:34:04.406Z,90.20
2023-05-21T03:35:04.136Z,88.10
2023-05-21T03:36:06.330Z,90.70
2023-05-21T03:37:03.884Z,90.80
2023-05-21T03:38:03.657Z,89.50
2023-05-21T03:39:04.342Z,88.40
2023-05-21T03:40:03.992Z,88.90
2023-05-21T03:41:09.329Z,88.70
2023-05-21T03:43:03.892Z,88.20
2023-05-21T03:44:06.069Z,84.60
2023-05-21T03:46:06.842Z,88.80
2023-05-21T03:47:07.046Z,88.30
2023-05-21T03:48:06.210Z,86.10
2023-05-21T03:49:03.755Z,88.70
2023-05-21T03:50:04.096Z,90.40
2023-05-21T03:51:03.855Z,89.00
2023-05-21T03:52:03.560Z,89.10
2023-05-21T03:53:06.762Z,89.70
2023-05-21T03:55:04.054Z,90.50
2023-05-21T03:57:06.829Z,89.70
2023-05-21T03:58:06.862Z,89.80
2023-05-21T04:00:06.529Z,89.90
2023-05-21T04:01:09.154Z,89.60
2023-05-21T04:03:04.403Z,90.00
2023-05-21T04:04:04.210Z,89.20
2023-05-21T04:06:06.148Z,90.20
2023-05-21T04:08:04.193Z,90.40
2023-05-21T04:09:06.374Z,83.60
2023-05-21T04:10:03.952Z,88.00
2023-05-21T04:11:08.711Z,90.50
2023-05-21T04:13:03.884Z,90.20
2023-05-21T04:15:04.166Z,90.20
2023-05-21T04:16:03.921Z,89.60
2023-05-21T04:17:06.192Z,90.50
2023-05-21T04:18:06.375Z,91.10
2023-05-21T04:19:03.959Z,90.40
2023-05-21T04:20:09.244Z,90.90
2023-05-21T04:21:13.965Z,88.80
2023-05-21T04:22:04.474Z,89.00
2023-05-21T04:23:04.247Z,88.70
2023-05-21T04:24:06.461Z,89.50
2023-05-21T04:25:09.383Z,89.50
2023-05-21T04:26:03.859Z,89.90
2023-05-21T04:27:04.335Z,89.80
2023-05-21T04:28:03.892Z,89.10
2023-05-21T04:29:03.574Z,89.50
2023-05-21T04:30:04.167Z,89.20
2023-05-21T04:31:09.009Z,88.90
2023-05-21T04:33:06.742Z,89.00
2023-05-21T04:34:06.842Z,89.80
2023-05-21T04:36:04.370Z,89.60
2023-05-21T04:37:04.088Z,89.50
2023-05-21T04:38:04.796Z,88.80
2023-05-21T04:39:04.343Z,89.00
2023-05-21T04:40:03.910Z,90.00
2023-05-21T04:42:06.867Z,90.00
2023-05-21T04:43:04.421Z,90.10
2023-05-21T04:44:03.993Z,91.70
2023-05-21T04:45:03.664Z,89.30
2023-05-21T04:46:09.353Z,89.80
2023-05-21T04:47:12.893Z,90.60
2023-05-21T04:48:04.437Z,90.00
2023-05-21T04:49:04.029Z,88.90
2023-05-21T04:51:06.993Z,87.80
2023-05-21T04:53:06.783Z,89.50
2023-05-21T04:54:06.852Z,89.60
2023-05-21T04:55:04.436Z,89.50
2023-05-21T04:56:06.648Z,83.80
2023-05-21T04:58:06.331Z,85.10
2023-05-21T05:00:04.473Z,84.90
2023-05-21T05:01:04.185Z,85.20
2023-05-21T05:02:04.129Z,87.60
2023-05-21T05:03:03.747Z,87.80
2023-05-21T05:04:04.646Z,87.50
2023-05-21T05:05:04.282Z,90.90
2023-05-21T05:06:03.802Z,93.00
2023-05-21T05:07:07.067Z,89.70
2023-05-21T05:08:06.198Z,89.40
2023-05-21T05:09:06.336Z,90.00
2023-05-21T05:10:03.883Z,90.00
2023-05-21T05:11:03.505Z,89.70
2023-05-21T05:12:06.637Z,92.20
2023-05-21T05:13:06.700Z,91.00
2023-05-21T05:14:06.756Z,91.10
2023-05-21T05:16:03.847Z,90.30
2023-05-21T05:17:03.840Z,91.00
2023-05-21T05:19:04.249Z,91.40
2023-05-21T05:20:03.885Z,91.60
2023-05-21T05:21:06.039Z,95.80
2023-05-21T05:23:04.160Z,93.30
2023-05-21T05:24:08.897Z,99.90
2023-05-21T05:26:03.995Z,99.30
2023-05-21T05:27:03.694Z,98.40
2023-05-21T05:28:04.393Z,98.20
2023-05-21T05:29:03.960Z,99.90
2023-05-21T05:30:03.598Z,99.60
2023-05-21T05:31:09.464Z,95.80
2023-05-21T05:33:06.294Z,95.50
2023-05-21T05:35:06.953Z,81.10
2023-05-21T05:36:07.041Z,81.80
2023-05-21T05:38:04.211Z,80.80
2023-05-21T05:39:06.515Z,81.80
2023-05-21T05:40:03.937Z,81.50
2023-05-21T05:41:03.665Z,79.50
2023-05-21T05:42:12.939Z,81.30
2023-05-21T05:44:10.897Z,80.50
2023-05-21T05:45:08.923Z,80.40
2023-05-21T05:46:09.498Z,79.50
2023-05-21T05:49:06.715Z,80.50
2023-05-21T05:50:12.989Z,80.20
2023-05-21T05:51:04.459Z,80.00
2023-05-21T05:52:06.658Z,78.80
2023-05-21T05:53:06.753Z,78.30
2023-05-21T05:54:06.795Z,78.90
2023-05-21T05:56:06.373Z,79.50
2023-05-21T05:57:03.948Z,78.40
2023-05-21T05:58:03.638Z,79.00
2023-05-21T05:59:04.254Z,76.90
2023-05-21T06:00:03.965Z,85.70
2023-05-21T06:01:06.082Z,76.60
2023-05-21T06:03:07.051Z,74.70
2023-05-21T06:04:06.045Z,74.70
2023-05-21T06:06:04.181Z,76.20
2023-05-21T06:07:08.813Z,73.20
2023-05-21T06:08:04.286Z,73.60
2023-05-21T06:09:06.503Z,74.10
2023-05-21T06:10:06.491Z,73.80
2023-05-21T06:11:06.556Z,74.50
2023-05-21T06:13:08.739Z,73.10
2023-05-21T06:14:04.160Z,72.50
2023-05-21T06:16:07.066Z,73.20
2023-05-21T06:17:08.666Z,71.90
2023-05-21T06:19:03.982Z,71.40
2023-05-21T06:20:03.629Z,70.20
2023-05-21T06:21:06.804Z,71.20
2023-05-21T06:22:04.307Z,71.10
2023-05-21T06:23:03.856Z,72.00
2023-05-21T06:24:04.418Z,69.50
2023-05-21T06:25:04.024Z,71.60
2023-05-21T06:26:08.807Z,71.60
2023-05-21T06:28:04.063Z,70.90
2023-05-21T06:29:03.759Z,70.90
2023-05-21T06:30:06.119Z,68.20
2023-05-21T06:32:04.231Z,69.50
2023-05-21T06:33:06.593Z,70.40
2023-05-21T06:34:06.774Z,67.40
2023-05-21T06:35:04.300Z,66.30
2023-05-21T06:36:06.480Z,67.60
2023-05-21T06:38:06.080Z,65.50
2023-05-21T06:39:06.134Z,66.10
2023-05-21T06:40:06.216Z,66.10
2023-05-21T06:41:03.713Z,65.60
2023-05-21T06:42:04.304Z,67.00
2023-05-21T06:43:06.354Z,67.90
2023-05-21T06:45:12.986Z,67.00
2023-05-21T06:47:06.061Z,66.80
2023-05-21T06:48:06.258Z,69.00
2023-05-21T06:49:06.351Z,68.70
2023-05-21T06:51:06.972Z,68.60
2023-05-21T06:53:06.768Z,66.70
2023-05-21T06:54:06.853Z,63.80
2023-05-21T06:55:06.906Z,66.10
2023-05-21T06:57:06.520Z,65.30
2023-05-21T06:58:06.476Z,63.60
2023-05-21T07:00:03.584Z,64.40
2023-05-21T07:01:04.315Z,66.10
2023-05-21T07:02:09.175Z,65.40
2023-05-21T07:04:03.543Z,62.70
2023-05-21T07:05:04.184Z,62.50
2023-05-21T07:06:03.763Z,62.90
2023-05-21T07:07:04.348Z,61.80
2023-05-21T07:08:06.433Z,62.40
2023-05-21T07:09:06.474Z,63.10
2023-05-21T07:10:06.552Z,63.00
2023-05-21T07:11:06.667Z,75.80
2023-05-21T07:12:04.107Z,75.60
2023-05-21T07:13:08.740Z,62.40
2023-05-21T07:15:06.822Z,61.70
2023-05-21T07:16:04.347Z,61.80
2023-05-21T07:17:04.201Z,62.70
2023-05-21T07:18:06.596Z,65.80
2023-05-21T07:19:06.747Z,63.50
2023-05-21T07:20:04.162Z,63.80
2023-05-21T07:21:08.765Z,62.20
2023-05-21T07:23:06.611Z,63.80
2023-05-21T07:24:06.617Z,62.10
2023-05-21T07:25:04.130Z,62.10
2023-05-21T07:27:25.165Z,64.80
2023-05-21T07:28:07.005Z,65.50
2023-05-21T07:30:06.731Z,64.70
2023-05-21T07:31:06.914Z,67.20
2023-05-21T07:32:04.462Z,64.40
2023-05-21T07:33:04.281Z,63.50
2023-05-21T07:34:06.674Z,63.90
2023-05-21T07:35:06.787Z,63.80
2023-05-21T07:37:08.952Z,64.30
2023-05-21T07:40:04.001Z,65.50
2023-05-21T07:42:04.332Z,66.00
2023-05-21T07:43:04.001Z,64.60
2023-05-21T07:44:03.613Z,62.00
2023-05-21T07:45:04.150Z,63.70
2023-05-21T07:47:04.509Z,64.30
2023-05-21T07:48:06.702Z,63.30
2023-05-21T07:49:06.700Z,62.10
2023-05-21T07:50:06.789Z,63.20
2023-05-21T07:51:04.282Z,62.90
2023-05-21T07:52:03.849Z,63.80
2023-05-21T07:53:06.136Z,62.80
2023-05-21T07:55:04.386Z,63.80
2023-05-21T07:56:06.608Z,64.70
2023-05-21T07:57:04.145Z,64.70
2023-05-21T07:58:03.676Z,61.90
2023-05-21T07:59:04.257Z,61.90
2023-05-21T08:00:06.409Z,60.70
2023-05-21T08:01:06.495Z,61.60
2023-05-21T08:03:03.820Z,60.20
2023-05-21T08:04:05.094Z,57.60
2023-05-21T08:05:03.906Z,56.60
2023-05-21T08:06:03.563Z,57.20
2023-05-21T08:07:04.211Z,56.90
2023-05-21T08:08:03.779Z,57.90
2023-05-21T08:09:06.983Z,54.80
2023-05-21T08:11:06.641Z,56.20
2023-05-21T08:12:06.660Z,56.90
2023-05-21T08:14:03.628Z,56.90
2023-05-21T08:15:06.692Z,56.20
2023-05-21T08:16:06.756Z,56.90
2023-05-21T08:17:04.282Z,57.00
2023-05-21T08:18:04.064Z,56.90
2023-05-21T08:19:06.305Z,55.70
2023-05-21T08:22:04.123Z,57.40
2023-05-21T08:23:03.860Z,56.60
2023-05-21T08:24:06.117Z,56.20
2023-05-21T08:25:06.176Z,57.70
2023-05-21T08:26:03.733Z,56.60
2023-05-21T08:27:06.857Z,56.80
2023-05-21T08:29:04.055Z,56.90
2023-05-21T08:30:03.703Z,55.50
2023-05-21T08:31:06.832Z,56.40
2023-05-21T08:32:13.200Z,56.90
2023-05-21T08:34:04.274Z,57.00
2023-05-21T08:35:03.919Z,53.20
2023-05-21T08:36:06.101Z,53.90
2023-05-21T08:38:04.122Z,53.20
2023-05-21T08:39:03.714Z,53.30
2023-05-21T08:40:04.417Z,53.50
2023-05-21T08:41:03.983Z,53.00
2023-05-21T08:42:06.146Z,53.50
2023-05-21T08:44:04.200Z,52.80
2023-05-21T08:45:03.896Z,52.40
2023-05-21T08:47:04.155Z,51.20
2023-05-21T08:48:03.718Z,50.60
2023-05-21T08:49:04.301Z,50.90
2023-05-21T08:50:08.995Z,51.60
2023-05-21T08:52:06.779Z,61.90
2023-05-21T08:53:19.685Z,61.10
2023-05-21T08:55:04.547Z,53.90
2023-05-21T08:56:06.698Z,53.80
2023-05-21T08:57:06.680Z,53.10
2023-05-21T08:58:06.655Z,52.90
2023-05-21T08:59:06.721Z,53.00
2023-05-21T09:00:04.182Z,53.60
2023-05-21T09:01:03.856Z,59.30
2023-05-21T09:02:06.061Z,55.00
2023-05-21T09:04:21.574Z,54.10
2023-05-21T09:06:06.540Z,54.90
2023-05-21T09:08:03.720Z,51.00
2023-05-21T09:09:04.364Z,55.30
2023-05-21T09:10:06.525Z,53.70
2023-05-21T09:12:08.682Z,54.70
2023-05-21T09:13:04.321Z,52.30
2023-05-21T09:14:06.596Z,50.90
2023-05-21T09:16:03.924Z,54.70
2023-05-21T09:17:03.543Z,54.20
2023-05-21T09:18:04.319Z,54.70
2023-05-21T09:19:05.231Z,53.50
2023-05-21T09:20:08.987Z,54.90
2023-05-21T09:21:03.549Z,54.90
2023-05-21T09:22:04.271Z,56.20
2023-05-21T09:23:03.853Z,54.10
2023-05-21T09:24:03.516Z,55.50
2023-05-21T09:25:04.191Z,49.70
2023-05-21T09:26:03.762Z,50.00
2023-05-21T09:27:04.346Z,50.20
2023-05-21T09:28:06.547Z,50.90
2023-05-21T09:29:04.065Z,50.60
2023-05-21T09:31:04.415Z,51.90
2023-05-21T09:32:04.081Z,51.90
2023-05-21T09:33:04.073Z,51.30
2023-05-21T09:34:08.852Z,50.90
2023-05-21T09:35:09.468Z,51.00
2023-05-21T09:36:06.642Z,50.70
2023-05-21T09:37:10.868Z,50.80
2023-05-21T09:38:04.069Z,51.60
2023-05-21T09:39:06.203Z,50.50
2023-05-21T09:41:06.712Z,51.00
2023-05-21T09:42:06.760Z,51.40
2023-05-21T09:44:12.864Z,49.00
2023-05-21T09:45:17.011Z,49.30
2023-05-21T09:46:03.495Z,49.10
2023-05-21T09:47:04.108Z,48.40
2023-05-21T09:48:06.318Z,48.50
2023-05-21T09:49:03.809Z,48.30
2023-05-21T09:50:04.433Z,48.80
2023-05-21T09:51:06.745Z,48.20
2023-05-21T09:54:06.239Z,48.00
2023-05-21T09:56:06.900Z,47.70
2023-05-21T09:58:03.882Z,47.60
2023-05-21T09:59:06.054Z,47.40
2023-05-21T10:00:06.125Z,46.70
2023-05-21T10:01:03.610Z,47.40
2023-05-21T10:02:04.382Z,46.50
2023-05-21T10:03:04.337Z,47.20
2023-05-21T10:06:04.152Z,47.10
2023-05-21T10:07:06.370Z,47.20
2023-05-21T10:08:06.422Z,45.20
2023-05-21T10:09:06.260Z,45.10
2023-05-21T10:10:03.898Z,45.60
2023-05-21T10:11:07.053Z,44.40
2023-05-21T10:13:06.731Z,44.90
2023-05-21T10:16:06.207Z,46.60
2023-05-21T10:17:03.797Z,46.50
2023-05-21T10:18:04.585Z,45.60
2023-05-21T10:19:06.866Z,43.80
2023-05-21T10:20:04.333Z,43.50
2023-05-21T10:21:06.376Z,43.20
2023-05-21T10:23:07.757Z,42.40
2023-05-21T10:24:04.135Z,42.30
2023-05-21T10:25:06.291Z,43.10
2023-05-21T10:26:06.250Z,43.60
2023-05-21T10:28:04.451Z,43.50
2023-05-21T10:29:04.024Z,42.50
2023-05-21T10:30:03.668Z,44.00
2023-05-21T10:31:04.276Z,44.30
2023-05-21T10:32:06.495Z,43.90
2023-05-21T10:34:06.550Z,47.10
2023-05-21T10:36:06.308Z,43.70
2023-05-21T10:38:04.458Z,41.60
2023-05-21T10:40:06.837Z,35.00
2023-05-21T10:41:09.354Z,36.50
2023-05-21T10:42:08.635Z,35.70
2023-05-21T10:43:04.061Z,36.00
2023-05-21T10:44:03.677Z,35.20
2023-05-21T10:45:06.788Z,36.00
2023-05-21T10:47:03.924Z,32.80
2023-05-21T10:48:06.124Z,33.40
2023-05-21T10:49:03.601Z,33.50
2023-05-21T10:50:04.294Z,34.60
2023-05-21T10:51:03.875Z,32.50
2023-05-21T10:52:04.485Z,33.20
2023-05-21T10:53:09.345Z,33.70
2023-05-21T10:56:04.320Z,33.50
2023-05-21T10:57:06.492Z,40.20
2023-05-21T10:59:03.619Z,33.50
2023-05-21T11:00:04.267Z,32.10
2023-05-21T11:01:04.319Z,31.90
2023-05-21T11:02:06.575Z,29.70
2023-05-21T11:04:03.893Z,30.60
2023-05-21T11:05:03.537Z,30.40
2023-05-21T11:06:04.076Z,31.60
2023-05-21T11:07:03.593Z,30.50
2023-05-21T11:08:06.789Z,32.00
2023-05-21T11:09:06.826Z,30.60
2023-05-21T11:11:03.943Z,30.50
2023-05-21T11:12:06.052Z,32.70
2023-05-21T11:14:04.289Z,31.50
2023-05-21T11:15:06.506Z,29.20
2023-05-21T11:16:03.957Z,29.30
2023-05-21T11:17:06.209Z,29.30
2023-05-21T11:18:03.774Z,29.50
2023-05-21T11:19:04.489Z,29.50
2023-05-21T11:20:04.057Z,29.90
2023-05-21T11:21:04.369Z,31.00
2023-05-21T11:22:03.944Z,32.30
2023-05-21T11:24:04.219Z,30.50
2023-05-21T11:26:04.480Z,29.60
2023-05-21T11:28:09.224Z,29.70
2023-05-21T11:29:06.207Z,28.70
2023-05-21T11:31:04.265Z,26.80
2023-05-21T11:32:03.964Z,28.50
2023-05-21T11:34:04.207Z,28.70
2023-05-21T11:36:06.013Z,26.10
2023-05-21T11:38:04.065Z,24.80
2023-05-21T11:39:03.815Z,25.00
2023-05-21T11:40:04.362Z,24.60
2023-05-21T11:41:06.409Z,26.20
2023-05-21T11:43:04.061Z,26.90
2023-05-21T11:44:03.634Z,28.10
2023-05-21T11:45:04.343Z,28.20
2023-05-21T11:46:04.040Z,26.70
2023-05-21T11:47:13.853Z,26.80
2023-05-21T11:50:06.336Z,28.50
2023-05-21T11:52:04.380Z,27.60
2023-05-21T11:53:06.552Z,28.20
2023-05-21T11:54:04.106Z,28.20
2023-05-21T11:55:09.317Z,27.20
2023-05-21T11:57:04.404Z,26.50
2023-05-21T11:59:03.788Z,24.60
2023-05-21T12:00:04.436Z,24.50
2023-05-21T12:01:06.356Z,24.90
2023-05-21T12:03:04.476Z,24.80
2023-05-21T12:05:03.649Z,26.30
2023-05-21T12:06:04.399Z,25.30
2023-05-21T12:07:03.708Z,25.20
2023-05-21T12:08:04.289Z,25.90
2023-05-21T12:09:13.021Z,25.30
2023-05-21T12:11:06.600Z,25.00
2023-05-21T12:12:06.626Z,25.10
2023-05-21T12:13:06.641Z,25.40
2023-05-21T12:15:03.810Z,24.50
2023-05-21T12:16:07.244Z,25.10
2023-05-21T12:17:06.533Z,25.80
2023-05-21T12:18:06.616Z,24.50
2023-05-21T12:21:04.416Z,26.00
2023-05-21T12:22:04.020Z,25.50
2023-05-21T12:23:03.618Z,28.20
2023-05-21T12:24:04.292Z,25.10
2023-05-21T12:25:06.943Z,24.20
2023-05-21T12:26:09.495Z,24.10
2023-05-21T12:27:06.532Z,24.70
2023-05-21T12:28:06.592Z,24.00
2023-05-21T12:30:03.658Z,24.40
2023-05-21T12:31:13.329Z,27.10
2023-05-21T12:33:06.163Z,26.80
2023-05-21T12:34:06.197Z,26.00
2023-05-21T12:35:06.204Z,26.80
2023-05-21T12:36:03.717Z,26.50
2023-05-21T12:37:06.884Z,25.40
2023-05-21T12:39:04.045Z,25.80
2023-05-21T12:40:04.097Z,25.80
2023-05-21T12:41:03.638Z,27.30
2023-05-21T12:42:04.348Z,25.00
2023-05-21T12:43:06.525Z,25.70
2023-05-21T12:44:06.547Z,24.20
2023-05-21T12:45:06.636Z,24.90
2023-05-21T12:46:06.791Z,24.40
2023-05-21T12:47:06.937Z,24.40
2023-05-21T12:48:04.512Z,24.80
2023-05-21T12:49:04.229Z,23.40
2023-05-21T12:50:06.416Z,24.10
2023-05-21T12:51:06.451Z,23.70
2023-05-21T12:54:04.263Z,25.70
2023-05-21T12:56:06.049Z,25.00
2023-05-21T12:57:03.516Z,25.20
2023-05-21T12:58:04.210Z,30.30
2023-05-21T12:59:06.394Z,29.80
2023-05-21T13:00:06.420Z,29.80
2023-05-21T13:01:05.767Z,30.00
2023-05-21T13:02:04.590Z,25.10
2023-05-21T13:03:07.647Z,29.50
2023-05-21T13:05:03.844Z,28.20
2023-05-21T13:06:07.017Z,27.70
2023-05-21T13:08:03.812Z,28.20
2023-05-21T13:09:07.055Z,30.80
2023-05-21T13:11:04.365Z,31.80
2023-05-21T13:12:06.598Z,27.10
2023-05-21T13:14:08.768Z,26.70
2023-05-21T13:15:09.360Z,25.80
2023-05-21T13:16:03.931Z,22.20
2023-05-21T13:17:06.085Z,25.70
2023-05-21T13:18:03.823Z,27.10
2023-05-21T13:19:03.638Z,27.00
2023-05-21T13:20:04.063Z,27.10
2023-05-21T13:21:08.846Z,26.30
2023-05-21T13:22:09.478Z,26.20
2023-05-21T13:24:06.374Z,26.50
2023-05-21T13:25:03.901Z,25.90
2023-05-21T13:26:06.072Z,26.10
2023-05-21T13:27:08.717Z,26.00
2023-05-21T13:28:04.306Z,25.80
2023-05-21T13:29:06.413Z,25.10
2023-05-21T13:30:03.881Z,25.00
2023-05-21T13:31:08.564Z,24.90
2023-05-21T13:33:04.374Z,25.70
2023-05-21T13:34:06.064Z,26.40
2023-05-21T13:36:04.286Z,25.80
2023-05-21T13:37:06.436Z,25.40
2023-05-21T13:39:08.713Z,24.90
2023-05-21T13:41:04.284Z,25.80
2023-05-21T13:42:06.510Z,25.60
2023-05-21T13:43:06.541Z,25.90
2023-05-21T13:45:06.158Z,26.80
2023-05-21T13:46:03.614Z,27.30
2023-05-21T13:47:04.457Z,26.80
2023-05-21T13:48:06.880Z,27.50
2023-05-21T13:52:06.810Z,27.70
2023-05-21T13:55:04.417Z,27.30
2023-05-21T13:56:04.010Z,27.40
2023-05-21T13:57:03.541Z,26.00
2023-05-21T13:58:04.186Z,26.20
2023-05-21T13:59:03.796Z,25.70
2023-05-21T14:00:07.032Z,26.00
2023-05-21T14:01:08.753Z,25.50
2023-05-21T14:03:04.176Z,28.10
2023-05-21T14:04:03.773Z,26.00
2023-05-21T14:05:04.442Z,26.90
2023-05-21T14:06:06.620Z,27.30
2023-05-21T14:07:06.859Z,27.20
2023-05-21T14:09:06.466Z,26.70
2023-05-21T14:10:06.660Z,27.00
2023-05-21T14:12:06.806Z,28.60
2023-05-21T14:13:19.373Z,28.00
2023-05-21T14:15:06.169Z,27.40
2023-05-21T14:16:08.726Z,26.90
2023-05-21T14:17:04.224Z,27.80
2023-05-21T14:18:04.000Z,28.80
2023-05-21T14:19:06.348Z,27.30
2023-05-21T14:20:03.957Z,27.80
2023-05-21T14:21:06.118Z,28.70
2023-05-21T14:22:03.646Z,29.50
2023-05-21T14:23:04.270Z,29.40
2023-05-21T14:24:08.933Z,28.80
2023-05-21T14:27:03.689Z,29.70
2023-05-21T14:28:04.331Z,29.20
2023-05-21T14:30:03.639Z,29.20
2023-05-21T14:31:04.298Z,29.50
2023-05-21T14:32:03.937Z,29.70
2023-05-21T14:33:03.608Z,29.70
2023-05-21T14:34:06.728Z,26.30
2023-05-21T14:36:08.987Z,26.50
2023-05-21T14:38:04.216Z,26.50
2023-05-21T14:39:03.917Z,26.90
2023-05-21T14:40:03.787Z,26.70
2023-05-21T14:41:06.873Z,28.00
2023-05-21T14:43:04.035Z,31.50
2023-05-21T14:44:06.180Z,30.10
2023-05-21T14:45:20.724Z,30.30
2023-05-21T14:48:07.082Z,29.40
2023-05-21T14:49:06.125Z,32.10
2023-05-21T14:50:06.135Z,31.00
2023-05-21T14:52:06.936Z,30.10
2023-05-21T14:54:04.123Z,30.10
2023-05-21T14:55:03.753Z,30.10
2023-05-21T14:56:04.368Z,31.40
2023-05-21T14:57:04.016Z,30.70
2023-05-21T14:58:03.615Z,30.60
2023-05-21T14:59:04.174Z,31.10
2023-05-21T15:00:03.771Z,31.80
2023-05-21T15:01:06.066Z,30.40
2023-05-21T15:02:06.232Z,31.00
2023-05-21T15:04:07.318Z,30.40
2023-05-21T15:05:08.954Z,30.10
2023-05-21T15:07:04.093Z,30.00
2023-05-21T15:09:04.468Z,30.50
2023-05-21T15:10:04.528Z,31.10
2023-05-21T15:11:04.179Z,31.80
2023-05-21T15:12:06.348Z,33.10
2023-05-21T15:13:03.885Z,32.30
2023-05-21T15:14:03.477Z,33.20
2023-05-21T15:15:04.168Z,30.60
2023-05-21T15:17:03.674Z,30.60
2023-05-21T15:18:06.969Z,33.20
2023-05-21T15:20:04.036Z,32.20
2023-05-21T15:22:04.252Z,32.80
2023-05-21T15:23:15.757Z,32.20
2023-05-21T15:24:06.634Z,34.80
2023-05-21T15:26:06.447Z,33.60
2023-05-21T15:28:05.989Z,33.90
2023-05-21T15:30:03.992Z,33.90
2023-05-21T15:31:06.266Z,32.80
2023-05-21T15:32:03.784Z,30.90
2023-05-21T15:33:06.997Z,31.50
2023-05-21T15:34:06.169Z,33.10
2023-05-21T15:36:04.545Z,33.30
2023-05-21T15:37:09.147Z,33.50
2023-05-21T15:38:03.559Z,32.30
2023-05-21T15:39:04.235Z,33.10
2023-05-21T15:40:03.816Z,32.60
2023-05-21T15:41:04.754Z,32.40
2023-05-21T15:43:06.848Z,31.70
2023-05-21T15:45:06.516Z,32.70
2023-05-21T15:46:06.577Z,32.20
2023-05-21T15:47:06.851Z,32.70
2023-05-21T15:48:04.465Z,33.00
2023-05-21T15:49:06.595Z,33.30
2023-05-21T15:51:08.834Z,33.10
2023-05-21T15:52:04.345Z,32.70
2023-05-21T15:53:04.013Z,33.00
2023-05-21T15:54:03.677Z,33.30
2023-05-21T15:55:04.253Z,33.20
2023-05-21T15:56:03.784Z,34.00
2023-05-21T15:57:04.371Z,34.70
2023-05-21T15:58:06.575Z,34.30
2023-05-21T15:59:06.684Z,34.50
2023-05-21T16:00:04.191Z,34.60
2023-05-21T16:01:06.448Z,34.70
2023-05-21T16:03:03.911Z,34.50
2023-05-21T16:05:04.271Z,35.20
2023-05-21T16:06:13.007Z,35.70
2023-05-21T16:08:04.397Z,35.10
2023-05-21T16:09:03.936Z,35.30
2023-05-21T16:10:06.098Z,34.50
2023-05-21T16:11:06.128Z,35.00
2023-05-21T16:13:06.731Z,33.30
2023-05-21T16:14:04.260Z,33.50
2023-05-21T16:15:03.907Z,33.20
2023-05-21T16:16:06.060Z,33.30
2023-05-21T16:17:03.699Z,33.20
2023-05-21T16:18:09.572Z,33.40